sensor_id;sensor_type;location;lat;lon;timestamp;pressure;altitude;pressure_sealevel;temperature;humidity
59650;BME280;46162;57.568;25.814;2023-02-04T00:00:53;101022.84;;;-5.30;100.00
59650;BME280;46162;57.568;25.814;2023-02-04T00:03:21;101026.34;;;-5.30;100.00
59650;BME280;46162;57.568;25.814;2023-02-04T00:05:52;101028.09;;;-5.29;100.00
59650;BME280;46162;57.568;25.814;2023-02-04T00:08:20;101033.41;;;-5.32;100.00
59650;BME280;46162;57.568;25.814;2023-02-04T00:10:49;101032.56;;;-5.32;100.00
59650;BME280;46162;57.568;25.814;2023-02-04T00:13:17;101037.09;;;-5.37;100.00
59650;BME280;46162;57.568;25.814;2023-02-04T00:15:46;101039.72;;;-5.37;100.00
59650;BME280;46162;57.568;25.814;2023-02-04T00:18:14;101040.50;;;-5.34;100.00
59650;BME280;46162;57.568;25.814;2023-02-04T00:20:43;101043.19;;;-5.35;100.00
59650;BME280;46162;57.568;25.814;2023-02-04T00:23:13;101039.34;;;-5.24;100.00
59650;BME280;46162;57.568;25.814;2023-02-04T00:25:42;101046.53;;;-5.30;100.00
59650;BME280;46162;57.568;25.814;2023-02-04T00:28:10;101045.00;;;-5.39;100.00
59650;BME280;46162;57.568;25.814;2023-02-04T00:30:39;101049.34;;;-5.36;100.00
59650;BME280;46162;57.568;25.814;2023-02-04T00:33:08;101042.44;;;-5.41;100.00
59650;BME280;46162;57.568;25.814;2023-02-04T00:35:36;101048.59;;;-5.42;100.00
59650;BME280;46162;57.568;25.814;2023-02-04T00:38:05;101046.91;;;-5.44;100.00
59650;BME280;46162;57.568;25.814;2023-02-04T00:40:36;101044.34;;;-5.46;100.00
59650;BME280;46162;57.568;25.814;2023-02-04T00:43:04;101051.19;;;-5.40;100.00
59650;BME280;46162;57.568;25.814;2023-02-04T00:45:33;101041.63;;;-5.43;100.00
59650;BME280;46162;57.568;25.814;2023-02-04T00:48:02;101046.09;;;-5.46;100.00
59650;BME280;46162;57.568;25.814;2023-02-04T00:50:32;101054.88;;;-5.47;100.00
59650;BME280;46162;57.568;25.814;2023-02-04T00:53:05;101061.72;;;-5.40;100.00
59650;BME280;46162;57.568;25.814;2023-02-04T00:55:35;101069.69;;;-5.43;100.00
59650;BME280;46162;57.568;25.814;2023-02-04T00:58:04;101071.38;;;-5.41;100.00
59650;BME280;46162;57.568;25.814;2023-02-04T01:00:33;101066.34;;;-5.50;100.00
59650;BME280;46162;57.568;25.814;2023-02-04T01:03:01;101068.91;;;-5.47;100.00
59650;BME280;46162;57.568;25.814;2023-02-04T01:05:30;101074.25;;;-5.50;100.00
59650;BME280;46162;57.568;25.814;2023-02-04T01:07:59;101074.09;;;-5.44;100.00
59650;BME280;46162;57.568;25.814;2023-02-04T01:10:27;101073.38;;;-5.49;100.00
59650;BME280;46162;57.568;25.814;2023-02-04T01:12:58;101076.88;;;-5.50;100.00
59650;BME280;46162;57.568;25.814;2023-02-04T01:15:28;101073.41;;;-5.50;100.00
59650;BME280;46162;57.568;25.814;2023-02-04T01:17:56;101079.59;;;-5.53;100.00
59650;BME280;46162;57.568;25.814;2023-02-04T01:20:25;101089.22;;;-5.52;100.00
59650;BME280;46162;57.568;25.814;2023-02-04T01:22:54;101082.16;;;-5.50;100.00
59650;BME280;46162;57.568;25.814;2023-02-04T01:25:22;101092.66;;;-5.50;100.00
59650;BME280;46162;57.568;25.814;2023-02-04T01:27:53;101090.13;;;-5.53;100.00
59650;BME280;46162;57.568;25.814;2023-02-04T01:30:23;101101.53;;;-5.54;100.00
59650;BME280;46162;57.568;25.814;2023-02-04T01:32:52;101100.53;;;-5.48;100.00
59650;BME280;46162;57.568;25.814;2023-02-04T01:35:20;101106.78;;;-5.54;100.00
59650;BME280;46162;57.568;25.814;2023-02-04T01:37:49;101113.88;;;-5.56;100.00
59650;BME280;46162;57.568;25.814;2023-02-04T01:40:18;101118.16;;;-5.52;100.00
59650;BME280;46162;57.568;25.814;2023-02-04T01:42:46;101127.72;;;-5.49;100.00
59650;BME280;46162;57.568;25.814;2023-02-04T01:45:15;101126.84;;;-5.48;100.00
59650;BME280;46162;57.568;25.814;2023-02-04T01:47:46;101133.94;;;-5.52;100.00
59650;BME280;46162;57.568;25.814;2023-02-04T01:50:18;101136.44;;;-5.46;100.00
59650;BME280;46162;57.568;25.814;2023-02-04T01:52:46;101136.53;;;-5.50;100.00
59650;BME280;46162;57.568;25.814;2023-02-04T01:55:18;101138.22;;;-5.48;100.00
59650;BME280;46162;57.568;25.814;2023-02-04T01:57:47;101138.22;;;-5.48;100.00
59650;BME280;46162;57.568;25.814;2023-02-04T02:00:22;101142.53;;;-5.45;100.00
59650;BME280;46162;57.568;25.814;2023-02-04T02:02:54;101146.94;;;-5.46;100.00
59650;BME280;46162;57.568;25.814;2023-02-04T02:05:24;101143.50;;;-5.48;100.00
59650;BME280;46162;57.568;25.814;2023-02-04T02:07:54;101147.03;;;-5.49;100.00
59650;BME280;46162;57.568;25.814;2023-02-04T02:10:24;101156.63;;;-5.46;100.00
59650;BME280;46162;57.568;25.814;2023-02-04T02:12:53;101153.06;;;-5.45;100.00
59650;BME280;46162;57.568;25.814;2023-02-04T02:15:22;101158.22;;;-5.41;100.00
59650;BME280;46162;57.568;25.814;2023-02-04T02:17:53;101160.94;;;-5.44;100.00
59650;BME280;46162;57.568;25.814;2023-02-04T02:20:24;101160.94;;;-5.44;100.00
59650;BME280;46162;57.568;25.814;2023-02-04T02:23:02;101159.19;;;-5.45;100.00
59650;BME280;46162;57.568;25.814;2023-02-04T02:25:34;101160.84;;;-5.41;100.00
59650;BME280;46162;57.568;25.814;2023-02-04T02:28:06;101166.03;;;-5.37;100.00
59650;BME280;46162;57.568;25.814;2023-02-04T02:30:35;101167.88;;;-5.41;100.00
59650;BME280;46162;57.568;25.814;2023-02-04T02:33:04;101173.19;;;-5.44;100.00
59650;BME280;46162;57.568;25.814;2023-02-04T02:35:34;101171.47;;;-5.44;100.00
59650;BME280;46162;57.568;25.814;2023-02-04T02:38:02;101167.09;;;-5.45;100.00
59650;BME280;46162;57.568;25.814;2023-02-04T02:40:34;101177.59;;;-5.43;100.00
59650;BME280;46162;57.568;25.814;2023-02-04T02:43:03;101183.72;;;-5.43;100.00
59650;BME280;46162;57.568;25.814;2023-02-04T02:45:34;101188.88;;;-5.40;100.00
59650;BME280;46162;57.568;25.814;2023-02-04T02:48:03;101189.63;;;-5.34;100.00
59650;BME280;46162;57.568;25.814;2023-02-04T02:50:32;101199.28;;;-5.33;100.00
59650;BME280;46162;57.568;25.814;2023-02-04T02:53:02;101209.91;;;-5.38;100.00
59650;BME280;46162;57.568;25.814;2023-02-04T02:55:31;101213.38;;;-5.36;100.00
59650;BME280;46162;57.568;25.814;2023-02-04T02:58:04;101221.22;;;-5.34;100.00
59650;BME280;46162;57.568;25.814;2023-02-04T03:00:39;101220.28;;;-5.32;100.00
59650;BME280;46162;57.568;25.814;2023-02-04T03:03:12;101223.84;;;-5.34;100.00
59650;BME280;46162;57.568;25.814;2023-02-04T03:05:45;101220.28;;;-5.32;100.00
59650;BME280;46162;57.568;25.814;2023-02-04T03:08:16;101223.84;;;-5.34;100.00
59650;BME280;46162;57.568;25.814;2023-02-04T03:10:45;101216.00;;;-5.36;100.00
59650;BME280;46162;57.568;25.814;2023-02-04T03:13:17;101216.88;;;-5.37;100.00
59650;BME280;46162;57.568;25.814;2023-02-04T03:15:47;101225.69;;;-5.36;100.00
59650;BME280;46162;57.568;25.814;2023-02-04T03:18:18;101228.22;;;-5.33;100.00
59650;BME280;46162;57.568;25.814;2023-02-04T03:20:48;101233.50;;;-5.33;100.00
59650;BME280;46162;57.568;25.814;2023-02-04T03:23:18;101230.00;;;-5.34;100.00
59650;BME280;46162;57.568;25.814;2023-02-04T03:25:47;101236.91;;;-5.30;100.00
59650;BME280;46162;57.568;25.814;2023-02-04T03:28:18;101242.28;;;-5.34;100.00
59650;BME280;46162;57.568;25.814;2023-02-04T03:30:48;101245.78;;;-5.34;100.00
59650;BME280;46162;57.568;25.814;2023-02-04T03:33:19;101251.91;;;-5.33;100.00
59650;BME280;46162;57.568;25.814;2023-02-04T03:35:48;101247.50;;;-5.33;100.00
59650;BME280;46162;57.568;25.814;2023-02-04T03:38:18;101254.47;;;-5.32;100.00
59650;BME280;46162;57.568;25.814;2023-02-04T03:40:47;101252.66;;;-5.28;100.00
59650;BME280;46162;57.568;25.814;2023-02-04T03:43:15;101258.81;;;-5.29;100.00
59650;BME280;46162;57.568;25.814;2023-02-04T03:45:45;101263.28;;;-5.31;100.00
59650;BME280;46162;57.568;25.814;2023-02-04T03:48:14;101262.34;;;-5.30;100.00
59650;BME280;46162;57.568;25.814;2023-02-04T03:50:43;101270.16;;;-5.27;100.00
59650;BME280;46162;57.568;25.814;2023-02-04T03:53:11;101269.28;;;-5.26;100.00
59650;BME280;46162;57.568;25.814;2023-02-04T03:55:40;101272.81;;;-5.27;100.00
59650;BME280;46162;57.568;25.814;2023-02-04T03:58:08;101277.06;;;-5.22;100.00
59650;BME280;46162;57.568;25.814;2023-02-04T04:00:37;101284.09;;;-5.22;100.00
59650;BME280;46162;57.568;25.814;2023-02-04T04:03:07;101280.59;;;-5.23;100.00
59650;BME280;46162;57.568;25.814;2023-02-04T04:05:36;101283.97;;;-5.18;100.00
59650;BME280;46162;57.568;25.814;2023-02-04T04:08:04;101291.97;;;-5.22;100.00
59650;BME280;46162;57.568;25.814;2023-02-04T04:10:33;101288.50;;;-5.23;100.00
59650;BME280;46162;57.568;25.814;2023-02-04T04:13:02;101289.41;;;-5.24;100.00
59650;BME280;46162;57.568;25.814;2023-02-04T04:15:30;101297.19;;;-5.19;100.00
59650;BME280;46162;57.568;25.814;2023-02-04T04:17:59;101304.19;;;-5.18;100.00
59650;BME280;46162;57.568;25.814;2023-02-04T04:20:30;101305.94;;;-5.19;100.00
59650;BME280;46162;57.568;25.814;2023-02-04T04:22:59;101307.66;;;-5.16;100.00
59650;BME280;46162;57.568;25.814;2023-02-04T04:25:28;101307.72;;;-5.19;100.00
59650;BME280;46162;57.568;25.814;2023-02-04T04:27:56;101319.13;;;-5.19;100.00
59650;BME280;46162;57.568;25.814;2023-02-04T04:30:25;101313.00;;;-5.19;100.00
59650;BME280;46162;57.568;25.814;2023-02-04T04:32:54;101323.53;;;-5.19;100.00
59650;BME280;46162;57.568;25.814;2023-02-04T04:35:22;101327.97;;;-5.23;100.00
59650;BME280;46162;57.568;25.814;2023-02-04T04:37:52;101326.84;;;-5.12;100.00
59650;BME280;46162;57.568;25.814;2023-02-04T04:40:21;101331.38;;;-5.18;100.00
59650;BME280;46162;57.568;25.814;2023-02-04T04:42:49;101332.22;;;-5.17;100.00
59650;BME280;46162;57.568;25.814;2023-02-04T04:45:19;101341.03;;;-5.18;100.00
59650;BME280;46162;57.568;25.814;2023-02-04T04:47:47;101348.09;;;-5.20;100.00
59650;BME280;46162;57.568;25.814;2023-02-04T04:50:16;101346.31;;;-5.20;100.00
59650;BME280;46162;57.568;25.814;2023-02-04T04:52:45;101352.50;;;-5.21;100.00
59650;BME280;46162;57.568;25.814;2023-02-04T04:55:15;101353.34;;;-5.20;100.00
59650;BME280;46162;57.568;25.814;2023-02-04T04:57:44;101362.09;;;-5.18;100.00
59650;BME280;46162;57.568;25.814;2023-02-04T05:00:16;101365.75;;;-5.24;100.00
59650;BME280;46162;57.568;25.814;2023-02-04T05:02:45;101370.94;;;-5.22;100.00
59650;BME280;46162;57.568;25.814;2023-02-04T05:05:13;101372.69;;;-5.21;100.00
59650;BME280;46162;57.568;25.814;2023-02-04T05:07:42;101372.69;;;-5.21;100.00
59650;BME280;46162;57.568;25.814;2023-02-04T05:10:11;101373.69;;;-5.27;100.00
59650;BME280;46162;57.568;25.814;2023-02-04T05:12:41;101382.41;;;-5.23;100.00
59650;BME280;46162;57.568;25.814;2023-02-04T05:15:09;101384.22;;;-5.27;100.00
59650;BME280;46162;57.568;25.814;2023-02-04T05:17:38;101385.97;;;-5.26;100.00
59650;BME280;46162;57.568;25.814;2023-02-04T05:20:07;101386.81;;;-5.25;100.00
59650;BME280;46162;57.568;25.814;2023-02-04T05:22:36;101390.31;;;-5.25;100.00
59650;BME280;46162;57.568;25.814;2023-02-04T05:25:05;101397.34;;;-5.25;100.00
59650;BME280;46162;57.568;25.814;2023-02-04T05:27:34;101395.63;;;-5.26;100.00
59650;BME280;46162;57.568;25.814;2023-02-04T05:30:04;101404.41;;;-5.27;100.00
59650;BME280;46162;57.568;25.814;2023-02-04T05:32:33;101405.22;;;-5.24;100.00
59650;BME280;46162;57.568;25.814;2023-02-04T05:35:03;101401.84;;;-5.30;100.00
59650;BME280;46162;57.568;25.814;2023-02-04T05:37:32;101403.53;;;-5.26;100.00
59650;BME280;46162;57.568;25.814;2023-02-04T05:40:00;101413.31;;;-5.33;100.00
59650;BME280;46162;57.568;25.814;2023-02-04T05:42:29;101408.91;;;-5.32;100.00
59650;BME280;46162;57.568;25.814;2023-02-04T05:44:58;101415.94;;;-5.33;100.00
59650;BME280;46162;57.568;25.814;2023-02-04T05:47:28;101421.22;;;-5.33;100.00
59650;BME280;46162;57.568;25.814;2023-02-04T05:49:56;101427.34;;;-5.32;100.00
59650;BME280;46162;57.568;25.814;2023-02-04T05:52:25;101431.72;;;-5.31;100.00
59650;BME280;46162;57.568;25.814;2023-02-04T05:54:53;101432.53;;;-5.29;100.00
59650;BME280;46162;57.568;25.814;2023-02-04T05:57:22;101436.06;;;-5.30;100.00
59650;BME280;46162;57.568;25.814;2023-02-04T05:59:50;101444.06;;;-5.35;100.00
59650;BME280;46162;57.568;25.814;2023-02-04T06:02:19;101450.19;;;-5.34;100.00
59650;BME280;46162;57.568;25.814;2023-02-04T06:04:49;101444.88;;;-5.31;100.00
59650;BME280;46162;57.568;25.814;2023-02-04T06:07:17;101451.94;;;-5.35;100.00
59650;BME280;46162;57.568;25.814;2023-02-04T06:09:46;101458.06;;;-5.33;100.00
59650;BME280;46162;57.568;25.814;2023-02-04T06:12:15;101463.50;;;-5.42;100.00
59650;BME280;46162;57.568;25.814;2023-02-04T06:14:43;101469.69;;;-5.45;100.00
59650;BME280;46162;57.568;25.814;2023-02-04T06:17:12;101469.69;;;-5.45;100.00
59650;BME280;46162;57.568;25.814;2023-02-04T06:19:40;101476.66;;;-5.41;100.00
59650;BME280;46162;57.568;25.814;2023-02-04T06:22:10;101485.41;;;-5.42;100.00
59650;BME280;46162;57.568;25.814;2023-02-04T06:24:39;101482.53;;;-5.29;100.00
59650;BME280;46162;57.568;25.814;2023-02-04T06:27:07;101494.22;;;-5.41;100.00
59650;BME280;46162;57.568;25.814;2023-02-04T06:29:36;101494.13;;;-5.38;100.00
59650;BME280;46162;57.568;25.814;2023-02-04T06:32:04;101501.16;;;-5.38;100.00
59650;BME280;46162;57.568;25.814;2023-02-04T06:34:33;101505.59;;;-5.41;100.00
59650;BME280;46162;57.568;25.814;2023-02-04T06:37:01;101505.53;;;-5.39;100.00
59650;BME280;46162;57.568;25.814;2023-02-04T06:39:32;101503.81;;;-5.40;100.00
59650;BME280;46162;57.568;25.814;2023-02-04T06:42:00;101512.63;;;-5.41;100.00
59650;BME280;46162;57.568;25.814;2023-02-04T06:44:29;101515.00;;;-5.29;100.00
59650;BME280;46162;57.568;25.814;2023-02-04T06:47:01;101523.03;;;-5.35;100.00
59650;BME280;46162;57.568;25.814;2023-02-04T06:49:30;101518.50;;;-5.28;100.00
59650;BME280;46162;57.568;25.814;2023-02-04T06:51:59;101529.09;;;-5.31;100.00
59650;BME280;46162;57.568;25.814;2023-02-04T06:54:28;101523.00;;;-5.33;100.00
59650;BME280;46162;57.568;25.814;2023-02-04T06:56:59;101540.50;;;-5.32;100.00
59650;BME280;46162;57.568;25.814;2023-02-04T06:59:33;101539.56;;;-5.28;100.00
59650;BME280;46162;57.568;25.814;2023-02-04T07:02:05;101544.75;;;-5.25;100.00
59650;BME280;46162;57.568;25.814;2023-02-04T07:04:35;101548.34;;;-5.29;100.00
59650;BME280;46162;57.568;25.814;2023-02-04T07:07:06;101552.78;;;-5.31;100.00
59650;BME280;46162;57.568;25.814;2023-02-04T07:09:35;101552.69;;;-5.27;100.00
59650;BME280;46162;57.568;25.814;2023-02-04T07:12:08;101557.94;;;-5.27;100.00
59650;BME280;46162;57.568;25.814;2023-02-04T07:14:37;101567.69;;;-5.30;100.00
59650;BME280;46162;57.568;25.814;2023-02-04T07:17:06;101562.41;;;-5.30;100.00
59650;BME280;46162;57.568;25.814;2023-02-04T07:19:35;101570.31;;;-5.30;100.00
59650;BME280;46162;57.568;25.814;2023-02-04T07:22:07;101567.66;;;-5.29;100.00
59650;BME280;46162;57.568;25.814;2023-02-04T07:24:36;101561.41;;;-5.25;100.00
59650;BME280;46162;57.568;25.814;2023-02-04T07:27:05;101577.28;;;-5.28;100.00
59650;BME280;46162;57.568;25.814;2023-02-04T07:29:35;101578.97;;;-5.24;100.00
59650;BME280;46162;57.568;25.814;2023-02-04T07:32:04;101582.44;;;-5.22;100.00
59650;BME280;46162;57.568;25.814;2023-02-04T07:34:36;101589.44;;;-5.21;100.00
59650;BME280;46162;57.568;25.814;2023-02-04T07:37:05;101595.50;;;-5.17;100.00
59650;BME280;46162;57.568;25.814;2023-02-04T07:39:34;101596.41;;;-5.18;100.00
59650;BME280;46162;57.568;25.814;2023-02-04T07:42:05;101606.13;;;-5.22;100.00
59650;BME280;46162;57.568;25.814;2023-02-04T07:44:44;101617.53;;;-5.21;100.00
59650;BME280;46162;57.568;25.814;2023-02-04T07:47:13;101617.47;;;-5.18;100.00
59650;BME280;46162;57.568;25.814;2023-02-04T07:49:42;101626.22;;;-5.16;100.00
59650;BME280;46162;57.568;25.814;2023-02-04T07:52:11;101621.88;;;-5.19;100.00
59650;BME280;46162;57.568;25.814;2023-02-04T07:54:39;101630.69;;;-5.21;100.00
59650;BME280;46162;57.568;25.814;2023-02-04T07:57:10;101638.44;;;-5.13;100.00
59650;BME280;46162;57.568;25.814;2023-02-04T07:59:40;101627.00;;;-5.11;100.00
59650;BME280;46162;57.568;25.814;2023-02-04T08:02:15;101641.03;;;-5.12;100.00
59650;BME280;46162;57.568;25.814;2023-02-04T08:04:44;101647.88;;;-5.02;100.00
59650;BME280;46162;57.568;25.814;2023-02-04T08:07:14;101651.56;;;-5.12;100.00
59650;BME280;46162;57.568;25.814;2023-02-04T08:09:43;101651.56;;;-5.12;100.00
59650;BME280;46162;57.568;25.814;2023-02-04T08:12:16;101665.56;;;-5.10;100.00
59650;BME280;46162;57.568;25.814;2023-02-04T08:14:45;101662.91;;;-5.07;100.00
59650;BME280;46162;57.568;25.814;2023-02-04T08:17:16;101668.94;;;-5.02;100.00
59650;BME280;46162;57.568;25.814;2023-02-04T08:19:45;101680.41;;;-5.04;100.00
59650;BME280;46162;57.568;25.814;2023-02-04T08:22:14;101688.31;;;-5.06;100.00
59650;BME280;46162;57.568;25.814;2023-02-04T08:24:44;101685.63;;;-5.01;100.00
59650;BME280;46162;57.568;25.814;2023-02-04T08:27:13;101682.19;;;-5.06;100.00
59650;BME280;46162;57.568;25.814;2023-02-04T08:29:42;101690.03;;;-5.02;100.00
59650;BME280;46162;57.568;25.814;2023-02-04T08:32:11;101691.81;;;-5.04;100.00
59650;BME280;46162;57.568;25.814;2023-02-04T08:34:42;101702.22;;;-4.98;100.00
59650;BME280;46162;57.568;25.814;2023-02-04T08:37:11;101701.38;;;-5.00;100.00
59650;BME280;46162;57.568;25.814;2023-02-04T08:39:40;101701.38;;;-5.00;100.00
59650;BME280;46162;57.568;25.814;2023-02-04T08:42:16;101712.75;;;-4.98;100.00
59650;BME280;46162;57.568;25.814;2023-02-04T08:44:45;101717.22;;;-5.03;100.00
59650;BME280;46162;57.568;25.814;2023-02-04T08:47:14;101729.41;;;-4.97;100.00
59650;BME280;46162;57.568;25.814;2023-02-04T08:49:48;101722.56;;;-5.06;100.00
59650;BME280;46162;57.568;25.814;2023-02-04T08:52:17;101724.34;;;-5.06;100.00
59650;BME280;46162;57.568;25.814;2023-02-04T08:54:47;101733.09;;;-5.04;100.00
59650;BME280;46162;57.568;25.814;2023-02-04T08:57:17;101733.03;;;-5.03;100.00
59650;BME280;46162;57.568;25.814;2023-02-04T08:59:45;101737.44;;;-5.02;100.00
59650;BME280;46162;57.568;25.814;2023-02-04T09:02:14;101740.06;;;-5.02;100.00
59650;BME280;46162;57.568;25.814;2023-02-04T09:04:48;101737.31;;;-4.95;100.00
59650;BME280;46162;57.568;25.814;2023-02-04T09:07:17;101751.25;;;-4.90;100.00
59650;BME280;46162;57.568;25.814;2023-02-04T09:09:46;101753.81;;;-4.87;100.00
59650;BME280;46162;57.568;25.814;2023-02-04T09:12:15;101749.47;;;-4.88;100.00
59650;BME280;46162;57.568;25.814;2023-02-04T09:14:44;101762.63;;;-4.87;100.00
59650;BME280;46162;57.568;25.814;2023-02-04T09:17:13;101767.09;;;-4.92;100.00
59650;BME280;46162;57.568;25.814;2023-02-04T09:19:42;101771.53;;;-4.95;100.00
59650;BME280;46162;57.568;25.814;2023-02-04T09:22:13;101765.41;;;-4.94;100.00
59650;BME280;46162;57.568;25.814;2023-02-04T09:24:44;101780.22;;;-4.90;100.00
59650;BME280;46162;57.568;25.814;2023-02-04T09:27:13;101779.16;;;-4.80;100.00
59650;BME280;46162;57.568;25.814;2023-02-04T09:29:42;101775.88;;;-4.91;100.00
59650;BME280;46162;57.568;25.814;2023-02-04T09:32:11;101781.88;;;-4.83;100.00
59650;BME280;46162;57.568;25.814;2023-02-04T09:34:40;101783.66;;;-4.85;100.00
59650;BME280;46162;57.568;25.814;2023-02-04T09:37:09;101790.34;;;-4.67;100.00
59650;BME280;46162;57.568;25.814;2023-02-04T09:39:40;101798.31;;;-4.69;100.00
59650;BME280;46162;57.568;25.814;2023-02-04T09:42:10;101805.41;;;-4.74;100.00
59650;BME280;46162;57.568;25.814;2023-02-04T09:44:41;101808.94;;;-4.75;100.00
59650;BME280;46162;57.568;25.814;2023-02-04T09:47:12;101813.16;;;-4.65;100.00
59650;BME280;46162;57.568;25.814;2023-02-04T09:49:43;101817.59;;;-4.68;100.00
59650;BME280;46162;57.568;25.814;2023-02-04T09:52:15;101809.63;;;-4.65;100.00
59650;BME280;46162;57.568;25.814;2023-02-04T09:54:47;101828.06;;;-4.62;100.00
59650;BME280;46162;57.568;25.814;2023-02-04T09:57:17;101831.50;;;-4.59;100.00
59650;BME280;46162;57.568;25.814;2023-02-04T09:59:48;101834.25;;;-4.65;100.00
59650;BME280;46162;57.568;25.814;2023-02-04T10:02:21;101839.59;;;-4.69;100.00
59650;BME280;46162;57.568;25.814;2023-02-04T10:04:53;101833.41;;;-4.67;100.00
59650;BME280;46162;57.568;25.814;2023-02-04T10:07:26;101841.97;;;-4.56;100.00
59650;BME280;46162;57.568;25.814;2023-02-04T10:09:57;101849.03;;;-4.58;100.00
59650;BME280;46162;57.568;25.814;2023-02-04T10:12:29;101852.50;;;-4.56;100.00
59650;BME280;46162;57.568;25.814;2023-02-04T10:14:58;101857.84;;;-4.59;100.00
59650;BME280;46162;57.568;25.814;2023-02-04T10:17:36;101864.84;;;-4.56;100.00
59650;BME280;46162;57.568;25.814;2023-02-04T10:20:11;101869.31;;;-4.60;100.00
59650;BME280;46162;57.568;25.814;2023-02-04T10:22:40;101865.63;;;-4.51;100.00
59650;BME280;46162;57.568;25.814;2023-02-04T10:25:16;101870.97;;;-4.56;100.00
59650;BME280;46162;57.568;25.814;2023-02-04T10:27:50;101868.28;;;-4.53;100.00
59650;BME280;46162;57.568;25.814;2023-02-04T10:30:21;101872.84;;;-4.62;100.00
59650;BME280;46162;57.568;25.814;2023-02-04T10:32:51;101879.84;;;-4.60;100.00
59650;BME280;46162;57.568;25.814;2023-02-04T10:35:21;101885.13;;;-4.60;100.00
59650;BME280;46162;57.568;25.814;2023-02-04T10:38:02;101886.03;;;-4.64;100.00
59650;BME280;46162;57.568;25.814;2023-02-04T10:40:34;101889.53;;;-4.62;100.00
59650;BME280;46162;57.568;25.814;2023-02-04T10:43:07;101891.25;;;-4.61;100.00
59650;BME280;46162;57.568;25.814;2023-02-04T10:45:43;101896.66;;;-4.67;100.00
59650;BME280;46162;57.568;25.814;2023-02-04T10:48:17;101912.25;;;-4.55;100.00
59650;BME280;46162;57.568;25.814;2023-02-04T10:50:47;101907.00;;;-4.58;100.00
59650;BME280;46162;57.568;25.814;2023-02-04T10:53:19;101896.44;;;-4.55;100.00
59650;BME280;46162;57.568;25.814;2023-02-04T10:56:13;101907.84;;;-4.54;100.00
59650;BME280;46162;57.568;25.814;2023-02-04T10:58:44;101914.91;;;-4.58;100.00
59650;BME280;46162;57.568;25.814;2023-02-04T11:01:17;101909.50;;;-4.47;100.00
59650;BME280;46162;57.568;25.814;2023-02-04T11:03:53;101915.69;;;-4.49;100.00
59650;BME280;46162;57.568;25.814;2023-02-04T11:06:23;101920.91;;;-4.46;100.00
59650;BME280;46162;57.568;25.814;2023-02-04T11:08:53;101917.47;;;-4.51;100.00
59650;BME280;46162;57.568;25.814;2023-02-04T11:11:30;101915.59;;;-4.45;100.00
59650;BME280;46162;57.568;25.814;2023-02-04T11:14:02;101924.25;;;-4.38;100.00
59650;BME280;46162;57.568;25.814;2023-02-04T11:16:32;101923.59;;;-4.49;100.00
59650;BME280;46162;57.568;25.814;2023-02-04T11:19:03;101923.31;;;-4.34;100.00
59650;BME280;46162;57.568;25.814;2023-02-04T11:21:41;101931.44;;;-4.45;100.00
59650;BME280;46162;57.568;25.814;2023-02-04T11:24:32;101928.88;;;-4.51;100.00
59650;BME280;46162;57.568;25.814;2023-02-04T11:27:16;101928.88;;;-4.51;100.00
59650;BME280;46162;57.568;25.814;2023-02-04T11:29:47;101933.28;;;-4.53;100.00
59650;BME280;46162;57.568;25.814;2023-02-04T11:32:31;101942.91;;;-4.50;100.00
59650;BME280;46162;57.568;25.814;2023-02-04T11:35:23;101949.16;;;-4.56;100.00
59650;BME280;46162;57.568;25.814;2023-02-04T11:37:54;101966.81;;;-4.60;100.00
59650;BME280;46162;57.568;25.814;2023-02-04T11:40:29;101960.56;;;-4.54;100.00
59650;BME280;46162;57.568;25.814;2023-02-04T11:43:02;101965.97;;;-4.62;100.00
59650;BME280;46162;57.568;25.814;2023-02-04T11:45:37;101965.97;;;-4.63;100.00
59650;BME280;46162;57.568;25.814;2023-02-04T11:48:11;101973.00;;;-4.64;100.00
59650;BME280;46162;57.568;25.814;2023-02-04T11:50:54;101965.09;;;-4.64;100.00
59650;BME280;46162;57.568;25.814;2023-02-04T11:53:24;101973.06;;;-4.67;100.00
59650;BME280;46162;57.568;25.814;2023-02-04T11:55:56;101984.34;;;-4.59;100.00
59650;BME280;46162;57.568;25.814;2023-02-04T11:58:28;101978.09;;;-4.53;100.00
59650;BME280;46162;57.568;25.814;2023-02-04T12:00:58;101986.06;;;-4.58;100.00
59650;BME280;46162;57.568;25.814;2023-02-04T12:03:28;101979.19;;;-4.65;100.00
59650;BME280;46162;57.568;25.814;2023-02-04T12:05:58;101991.34;;;-4.58;100.00
59650;BME280;46162;57.568;25.814;2023-02-04T12:08:33;101994.75;;;-4.49;100.00
59650;BME280;46162;57.568;25.814;2023-02-04T12:11:06;101993.09;;;-4.57;100.00
59650;BME280;46162;57.568;25.814;2023-02-04T12:13:47;101993.03;;;-4.52;100.00
59650;BME280;46162;57.568;25.814;2023-02-04T12:16:17;102000.06;;;-4.53;100.00
59650;BME280;46162;57.568;25.814;2023-02-04T12:18:46;102004.63;;;-4.64;100.00
59650;BME280;46162;57.568;25.814;2023-02-04T12:21:16;102005.56;;;-4.66;100.00
59650;BME280;46162;57.568;25.814;2023-02-04T12:23:46;102012.63;;;-4.70;100.00
59650;BME280;46162;57.568;25.814;2023-02-04T12:26:15;102023.13;;;-4.67;100.00
59650;BME280;46162;57.568;25.814;2023-02-04T12:28:46;102025.66;;;-4.59;100.00
59650;BME280;46162;57.568;25.814;2023-02-04T12:31:15;102032.53;;;-4.47;100.00
59650;BME280;46162;57.568;25.814;2023-02-04T12:33:44;102032.69;;;-4.60;100.00
59650;BME280;46162;57.568;25.814;2023-02-04T12:36:13;102025.78;;;-4.67;100.00
59650;BME280;46162;57.568;25.814;2023-02-04T12:38:42;102037.19;;;-4.68;100.00
59650;BME280;46162;57.568;25.814;2023-02-04T12:41:11;102031.16;;;-4.74;100.00
59650;BME280;46162;57.568;25.814;2023-02-04T12:43:40;102039.00;;;-4.73;100.00
59650;BME280;46162;57.568;25.814;2023-02-04T12:46:11;102035.53;;;-4.75;100.00